createdAt,value
2023-01-04T00:00:25.153Z,91.31
2023-01-04T00:05:25.047Z,90.80
2023-01-04T00:10:24.988Z,89.97
2023-01-04T00:15:24.940Z,89.83
2023-01-04T00:20:24.837Z,89.73
2023-01-04T00:25:24.789Z,89.42
2023-01-04T00:30:24.722Z,89.22
2023-01-04T00:35:44.718Z,89.31
2023-01-04T00:40:25.572Z,89.31
2023-01-04T00:45:24.517Z,89.62
2023-01-04T00:50:24.456Z,89.07
2023-01-04T00:55:24.380Z,88.96
2023-01-04T01:00:24.293Z,88.45
2023-01-04T01:05:44.570Z,88.14
2023-01-04T01:10:36.957Z,87.63
2023-01-04T01:15:36.943Z,87.52
2023-01-04T01:20:36.831Z,87.73
2023-01-04T01:25:36.792Z,87.84
2023-01-04T01:30:36.697Z,87.63
2023-01-04T01:35:36.647Z,86.70
2023-01-04T01:40:36.566Z,87.73
2023-01-04T01:45:36.495Z,87.63
2023-01-04T01:50:36.426Z,87.32
2023-01-04T01:55:36.401Z,87.12
2023-01-04T02:00:36.302Z,87.12
2023-01-04T02:05:36.299Z,87.22
2023-01-04T02:10:36.160Z,87.22
2023-01-04T02:15:36.219Z,87.52
2023-01-04T02:20:36.116Z,88.76
2023-01-04T02:25:35.990Z,89.42
2023-01-04T02:30:35.900Z,90.66
2023-01-04T02:35:35.912Z,91.38
2023-01-04T02:40:35.760Z,90.45
2023-01-04T02:45:35.721Z,90.45
2023-01-04T02:50:35.640Z,90.34
2023-01-04T02:55:35.561Z,90.14
2023-01-04T03:00:35.545Z,90.34
2023-01-04T03:05:35.454Z,89.73
2023-01-04T03:10:35.351Z,89.42
2023-01-04T03:15:35.312Z,89.38
2023-01-04T03:20:35.231Z,88.86
2023-01-04T03:25:35.177Z,89.28
2023-01-04T03:30:35.065Z,88.72
2023-01-04T03:35:35.044Z,88.20
2023-01-04T03:40:34.964Z,88.51
2023-01-04T03:45:34.912Z,88.06
2023-01-04T03:50:34.817Z,87.96
2023-01-04T03:55:34.776Z,87.96
2023-01-04T04:00:34.739Z,87.34
2023-01-04T04:05:34.654Z,87.65
2023-01-04T04:10:34.567Z,87.75
2023-01-04T04:15:34.519Z,87.96
2023-01-04T04:20:34.440Z,87.96
2023-01-04T04:25:34.347Z,88.27
2023-01-04T04:30:34.281Z,88.17
2023-01-04T04:35:34.221Z,88.78
2023-01-04T04:40:34.145Z,88.27
2023-01-04T04:45:34.178Z,88.68
2023-01-04T04:50:34.020Z,89.19
2023-01-04T04:55:34.018Z,89.19
2023-01-04T05:00:33.885Z,89.19
2023-01-04T05:05:33.849Z,89.29
2023-01-04T05:10:33.766Z,89.19
2023-01-04T05:15:48.280Z,89.29
2023-01-04T05:20:40.678Z,89.50
2023-01-04T05:25:40.589Z,89.40
2023-01-04T05:30:40.551Z,89.19
2023-01-04T05:35:40.484Z,89.50
2023-01-04T05:40:40.379Z,89.60
2023-01-04T05:45:40.370Z,90.01
2023-01-04T05:50:40.262Z,90.36
2023-01-04T05:55:40.182Z,90.01
2023-01-04T06:00:40.143Z,90.42
2023-01-04T06:05:40.046Z,90.53
2023-01-04T06:10:40.003Z,90.53
2023-01-04T06:15:43.258Z,90.78
2023-01-04T06:20:39.871Z,91.08
2023-01-04T06:25:39.786Z,91.29
2023-01-04T06:30:39.772Z,91.49
2023-01-04T06:35:39.648Z,91.76
2023-01-04T06:40:39.575Z,92.01
2023-01-04T06:45:39.564Z,92.11
2023-01-04T06:50:39.468Z,92.52
2023-01-04T06:55:39.379Z,92.32
2023-01-04T07:00:39.327Z,92.42
2023-01-04T07:05:39.240Z,92.38
2023-01-04T07:10:39.210Z,92.58
2023-01-04T07:15:41.014Z,92.99
2023-01-04T07:20:39.055Z,92.99
2023-01-04T07:25:38.961Z,93.20
2023-01-04T07:30:38.963Z,93.40
2023-01-04T07:35:38.824Z,93.40
2023-01-04T07:40:56.280Z,93.30
2023-01-04T07:45:39.757Z,93.51
2023-01-04T07:50:38.660Z,93.51
2023-01-04T07:55:38.558Z,93.61
2023-01-04T08:00:38.521Z,93.71
2023-01-04T08:05:38.429Z,93.92
2023-01-04T08:10:38.384Z,94.12
2023-01-04T08:15:38.318Z,94.23
2023-01-04T08:20:38.298Z,94.02
2023-01-04T08:25:38.160Z,93.98
2023-01-04T08:30:38.118Z,93.67
2023-01-04T08:35:38.032Z,93.87
2023-01-04T08:40:59.675Z,93.98
2023-01-04T08:45:38.916Z,94.18
2023-01-04T08:50:37.858Z,94.39
2023-01-04T08:55:37.794Z,94.70
2023-01-04T09:00:37.702Z,94.80
2023-01-04T09:05:37.633Z,94.76
2023-01-04T09:10:37.582Z,94.85
2023-01-04T09:15:37.561Z,94.85
2023-01-04T09:20:37.467Z,94.85
2023-01-04T09:25:37.351Z,94.65
2023-01-04T09:30:37.320Z,94.30
2023-01-04T09:35:37.223Z,94.10
2023-01-04T09:40:37.237Z,93.48
2023-01-04T09:45:37.103Z,93.02
2023-01-04T09:50:37.031Z,92.72
2023-01-04T09:55:40.703Z,93.02
2023-01-04T10:00:43.435Z,92.93
2023-01-04T10:05:37.831Z,92.72
2023-01-04T10:10:36.758Z,92.47
2023-01-04T10:15:36.699Z,92.47
2023-01-04T10:25:37.584Z,92.22
2023-01-04T10:30:36.494Z,92.32
2023-01-04T10:35:36.432Z,92.83
2023-01-04T10:40:36.369Z,93.15
2023-01-04T10:45:36.273Z,93.04
2023-01-04T10:50:36.255Z,93.35
2023-01-04T10:55:36.154Z,93.55
2023-01-04T11:00:36.189Z,93.45
2023-01-04T11:05:36.020Z,93.45
2023-01-04T11:10:35.957Z,93.04
2023-01-04T11:15:35.884Z,92.79
2023-01-04T11:20:38.383Z,92.69
2023-01-04T11:25:36.820Z,93.00
2023-01-04T11:30:35.692Z,93.10
2023-01-04T11:35:41.852Z,93.20
2023-01-04T11:40:36.566Z,93.71
2023-01-04T11:45:35.503Z,94.33
2023-01-04T11:50:35.509Z,94.74
2023-01-04T11:55:35.346Z,94.84
2023-01-04T12:00:35.285Z,94.95
2023-01-04T12:05:35.215Z,94.95
2023-01-04T12:10:35.160Z,94.95
2023-01-04T12:15:35.054Z,95.00
2023-01-04T12:20:35.033Z,95.00
2023-01-04T12:25:34.930Z,95.21
2023-01-04T12:30:34.892Z,94.90
2023-01-04T12:35:35.613Z,94.24
2023-01-04T12:40:34.749Z,94.24
2023-01-04T12:45:34.674Z,94.45
2023-01-04T12:50:38.342Z,94.04
2023-01-04T12:55:41.990Z,93.93
2023-01-04T13:00:35.455Z,93.79
2023-01-04T13:10:35.340Z,93.69
2023-01-04T13:15:34.260Z,93.59
2023-01-04T13:20:34.223Z,93.79
2023-01-04T13:25:34.145Z,93.59
2023-01-04T13:30:34.085Z,93.59
2023-01-04T13:35:34.000Z,94.10
2023-01-04T13:40:33.957Z,94.30
2023-01-04T13:45:33.874Z,93.69
2023-01-04T13:50:33.818Z,93.69
2023-01-04T13:55:33.716Z,93.48
2023-01-04T14:00:37.128Z,93.59
2023-01-04T14:05:34.599Z,93.38
2023-01-04T14:10:33.604Z,92.93
2023-01-04T14:15:33.491Z,93.03
2023-01-04T14:20:33.394Z,93.69
2023-01-04T14:25:33.343Z,93.79
2023-01-04T14:30:33.237Z,93.89
2023-01-04T14:35:33.190Z,94.30
2023-01-04T14:40:33.141Z,94.30
2023-01-04T14:45:33.030Z,94.60
2023-01-04T14:50:33.006Z,94.71
2023-01-04T14:55:32.942Z,95.12
2023-01-04T15:00:32.846Z,95.22
2023-01-04T15:05:37.407Z,95.22
2023-01-04T15:10:33.728Z,95.22
2023-01-04T15:15:32.638Z,95.43
2023-01-04T15:20:32.592Z,95.67
2023-01-04T15:25:32.492Z,95.67
2023-01-04T15:30:32.439Z,95.67
2023-01-04T15:35:32.371Z,95.57
2023-01-04T15:40:32.317Z,95.22
2023-01-04T15:45:32.242Z,95.22
2023-01-04T15:50:32.189Z,95.32
2023-01-04T15:55:35.987Z,95.22
2023-01-04T16:00:32.072Z,95.12
2023-01-04T16:05:31.965Z,95.32
2023-01-04T16:10:31.916Z,95.32
2023-01-04T16:15:31.797Z,95.73
2023-01-04T16:20:31.765Z,95.43
2023-01-04T16:25:31.692Z,95.22
2023-01-04T16:30:31.625Z,95.22
2023-01-04T16:35:31.575Z,95.12
2023-01-04T16:40:31.506Z,95.22
2023-01-04T16:45:31.414Z,95.43
2023-01-04T16:50:31.371Z,95.43
2023-01-04T16:55:31.336Z,95.84
2023-01-04T17:00:31.329Z,96.55
2023-01-04T17:05:31.158Z,97.78
2023-01-04T17:10:31.108Z,98.49
2023-01-04T17:15:46.346Z,99.15
2023-01-04T17:20:31.972Z,99.46
2023-01-04T17:25:30.877Z,99.66
2023-01-04T17:30:30.824Z,99.87
2023-01-04T17:35:30.725Z,99.99
2023-01-04T17:40:30.701Z,99.99
2023-01-04T17:45:30.639Z,99.99
2023-01-04T17:50:30.598Z,99.77
2023-01-04T17:55:30.581Z,99.56
2023-01-04T18:00:30.417Z,99.21
2023-01-04T18:05:39.410Z,99.21
2023-01-04T18:10:48.495Z,99.01
2023-01-04T18:15:31.204Z,98.80
2023-01-04T18:20:30.174Z,98.90
2023-01-04T18:25:30.075Z,98.49
2023-01-04T18:30:30.033Z,98.39
2023-01-04T18:35:29.965Z,98.19
2023-01-04T18:40:29.905Z,97.78
2023-01-04T18:45:29.816Z,97.33
2023-01-04T18:50:30.176Z,97.22
2023-01-04T18:55:29.668Z,97.42
2023-01-04T19:00:29.619Z,97.83
2023-01-04T19:05:29.556Z,98.24
2023-01-04T19:10:29.473Z,97.94
2023-01-04T19:15:29.388Z,97.12
2023-01-04T19:20:29.396Z,96.92
2023-01-04T19:25:29.274Z,96.81
2023-01-04T19:30:29.263Z,90.84
2023-01-04T19:35:29.184Z,86.33
2023-01-04T19:40:29.059Z,84.45
2023-01-04T19:45:28.979Z,83.43
2023-01-04T19:50:28.967Z,83.73
2023-01-04T19:55:28.843Z,82.21
2023-01-04T20:00:28.831Z,80.94
2023-01-04T20:05:28.724Z,80.78
2023-01-04T20:10:28.671Z,79.72
2023-01-04T20:15:28.598Z,79.17
2023-01-04T20:20:28.549Z,79.38
2023-01-04T20:25:28.446Z,80.84
2023-01-04T20:30:28.417Z,79.72
2023-01-04T20:35:28.339Z,78.50
2023-01-04T20:40:28.331Z,78.26
2023-01-04T20:45:28.199Z,78.05
2023-01-04T20:50:28.129Z,77.24
2023-01-04T20:55:28.039Z,76.73
2023-01-04T21:00:27.999Z,77.10
2023-01-04T21:05:27.905Z,78.42
2023-01-04T21:10:27.854Z,79.48
2023-01-04T21:15:27.791Z,79.58
2023-01-04T21:20:27.718Z,80.54
2023-01-04T21:25:27.658Z,83.09
2023-01-04T21:30:27.614Z,85.47
2023-01-04T21:35:27.509Z,85.47
2023-01-04T21:40:27.476Z,84.55
2023-01-04T21:45:27.390Z,84.80
2023-01-04T21:50:27.313Z,85.61
2023-01-04T21:55:33.871Z,86.43
2023-01-04T22:00:28.225Z,88.17
2023-01-04T22:05:27.108Z,88.98
2023-01-04T22:10:27.047Z,89.69
2023-01-04T22:15:27.004Z,90.55
2023-01-04T22:20:26.942Z,91.78
2023-01-04T22:25:26.876Z,92.84
2023-01-04T22:30:26.769Z,93.76
2023-01-04T22:35:26.711Z,94.58
2023-01-04T22:40:26.629Z,94.78
2023-01-04T22:45:26.614Z,95.13
2023-01-04T22:50:26.568Z,95.23
2023-01-04T22:55:35.101Z,95.34
2023-01-04T23:00:27.369Z,95.95
2023-01-04T23:05:26.335Z,95.75
2023-01-04T23:10:26.257Z,95.64
2023-01-04T23:15:26.160Z,95.89
2023-01-04T23:20:26.115Z,95.69
2023-01-04T23:25:26.053Z,95.48
2023-01-04T23:30:25.978Z,95.79
2023-01-04T23:35:25.917Z,95.69
2023-01-04T23:40:25.822Z,95.59
2023-01-04T23:45:25.799Z,95.69
2023-01-04T23:50:25.715Z,95.69
2023-01-04T23:55:25.656Z,95.07
